Time;durP1;ratioP1;P1;durP2;ratioP2;P2;SDS_P1;SDS_P2;PMS_P1;PMS_P2;Temp;Humidity;BMP_temperature;BMP_pressure;BME280_temperature;BME280_humidity;BME280_pressure;Samples;Min_cycle;Max_cycle;Signal;HPM_P1;HPM_P2
2023/07/19 00:00:41;;;;;;;20.73;6.47;;;;;;;-142.57;65.03;115900.28;6196669;23;20016;-80
2023/07/19 00:03:06;;;;;;;22.42;7.20;;;;;;;-142.57;65.39;115900.28;6204057;23;20005;-83
2023/07/19 00:05:32;;;;;;;17.63;6.82;;;;;;;-142.57;66.04;115900.28;6200338;23;20048;-85
2023/07/19 00:07:58;;;;;;;24.05;7.35;;;;;;;-142.57;66.74;115900.28;6188615;23;20012;-84
2023/07/19 00:10:24;;;;;;;22.25;7.88;;;;;;;-142.57;67.30;115900.28;6188087;23;20009;-81
2023/07/19 00:12:50;;;;;;;31.92;7.57;;;;;;;-142.57;68.29;115900.28;6186428;23;20007;-82
2023/07/19 00:15:16;;;;;;;24.50;7.60;;;;;;;-142.57;67.81;115900.28;6184521;23;20013;-81
2023/07/19 00:17:44;;;;;;;19.02;7.88;;;;;;;-142.57;68.50;115900.28;6185455;23;20005;-85
2023/07/19 00:20:14;;;;;;;17.20;8.20;;;;;;;-142.57;69.58;115900.28;6186554;23;20009;-79
2023/07/19 00:22:40;;;;;;;24.92;8.65;;;;;;;-142.57;71.52;115900.28;6186856;23;20095;-79
2023/07/19 00:25:06;;;;;;;17.25;8.70;;;;;;;-142.57;71.84;115900.28;6185795;23;20036;-81
2023/07/19 00:27:32;;;;;;;20.40;8.88;;;;;;;-142.57;72.75;115900.28;6186480;23;20009;-80
2023/07/19 00:29:58;;;;;;;24.98;9.75;;;;;;;-142.57;74.44;115900.28;6185892;23;20055;-79
2023/07/19 00:32:24;;;;;;;19.88;10.63;;;;;;;-142.57;77.21;115900.28;6185845;23;20067;-80
2023/07/19 00:34:49;;;;;;;21.70;11.27;;;;;;;-142.57;77.81;115900.28;6186139;23;20005;-83
2023/07/19 00:37:15;;;;;;;27.45;12.23;;;;;;;-142.57;79.51;115900.28;6186987;23;20052;-82
2023/07/19 00:39:42;;;;;;;20.73;11.70;;;;;;;-142.57;79.80;115900.28;6185882;23;20387;-81
2023/07/19 00:42:07;;;;;;;19.17;13.40;;;;;;;-142.57;82.76;115900.28;6186978;23;20318;-81
2023/07/19 00:44:33;;;;;;;27.27;13.00;;;;;;;-142.57;85.63;115900.28;6184320;23;20024;-83
2023/07/19 00:47:02;;;;;;;29.67;13.82;;;;;;;-142.57;87.33;115900.28;6186271;23;20441;-84
2023/07/19 00:49:29;;;;;;;28.10;13.15;;;;;;;-142.57;89.51;115900.28;6188470;23;20053;-83
2023/07/19 00:51:56;;;;;;;28.67;14.77;;;;;;;-142.57;90.47;115900.28;6187179;23;20005;-80
2023/07/19 00:54:21;;;;;;;26.95;13.85;;;;;;;-142.57;90.34;115900.28;6184453;23;20043;-83
2023/07/19 00:56:48;;;;;;;22.73;14.43;;;;;;;-142.57;90.55;115900.28;6185958;23;20016;-84
2023/07/19 00:59:15;;;;;;;26.38;15.18;;;;;;;-142.57;89.94;115900.28;6186218;23;20028;-83
2023/07/19 01:01:45;;;;;;;31.48;14.43;;;;;;;-142.57;89.46;115900.28;6185969;23;20024;-85
2023/07/19 01:04:12;;;;;;;29.77;14.88;;;;;;;-142.57;90.31;115900.28;6186031;23;20005;-84
2023/07/19 01:06:38;;;;;;;34.75;15.25;;;;;;;-142.57;90.77;115900.28;6183614;23;20047;-81
2023/07/19 01:09:04;;;;;;;26.17;15.18;;;;;;;-142.57;90.83;115900.28;6186011;23;20009;-80
2023/07/19 01:11:31;;;;;;;27.77;16.63;;;;;;;-142.57;92.81;115900.28;6186124;23;20020;-83
2023/07/19 01:13:57;;;;;;;36.20;17.00;;;;;;;-142.57;94.57;115900.28;6184050;23;20039;-82
2023/07/19 01:16:23;;;;;;;31.98;16.30;;;;;;;-142.57;95.57;115900.28;6184167;23;20009;-81
2023/07/19 01:18:49;;;;;;;34.67;18.20;;;;;;;-142.57;97.07;115900.28;6184142;23;20028;-79
2023/07/19 01:21:15;;;;;;;32.72;17.23;;;;;;;-142.57;96.74;115900.28;6185756;23;20009;-81
2023/07/19 01:23:41;;;;;;;33.42;16.33;;;;;;;-142.57;98.00;115900.28;6186123;23;20008;-79
2023/07/19 01:26:06;;;;;;;22.90;15.25;;;;;;;-142.57;98.24;115900.28;6185834;23;20005;-80
2023/07/19 01:28:32;;;;;;;27.17;12.95;;;;;;;-142.57;97.37;115900.28;6184380;23;20020;-80
2023/07/19 01:31:03;;;;;;;19.80;12.00;;;;;;;-142.57;97.26;115900.28;6185963;23;20015;-80
2023/07/19 01:33:29;;;;;;;17.67;11.60;;;;;;;-142.57;96.25;115900.28;6184204;23;20013;-85
2023/07/19 01:35:54;;;;;;;22.55;11.52;;;;;;;-142.57;95.07;115900.28;6186013;23;20349;-79
2023/07/19 01:38:19;;;;;;;24.90;11.77;;;;;;;-142.57;95.16;115900.28;6184207;23;20012;-80
2023/07/19 01:40:45;;;;;;;22.67;11.25;;;;;;;-142.57;96.03;115900.28;6185407;23;20009;-81
2023/07/19 01:43:10;;;;;;;21.80;10.98;;;;;;;-142.57;96.25;115900.28;6159060;23;20009;-78
2023/07/19 01:45:36;;;;;;;18.15;10.25;;;;;;;-142.57;96.28;115900.28;6185339;23;20016;-80
2023/07/19 01:48:02;;;;;;;21.85;10.77;;;;;;;-142.57;94.70;115900.28;6185290;23;20011;-80
2023/07/19 01:50:29;;;;;;;24.70;10.10;;;;;;;-142.57;94.11;115900.28;6185717;23;20016;-80
2023/07/19 01:52:55;;;;;;;19.80;9.77;;;;;;;-142.57;94.34;115900.28;6184340;23;20026;-79
2023/07/19 01:55:20;;;;;;;18.25;8.93;;;;;;;-142.57;93.40;115900.28;6185627;23;20013;-78
2023/07/19 01:57:46;;;;;;;19.05;9.35;;;;;;;-142.57;92.38;115900.28;6184493;23;20039;-82
2023/07/19 02:00:12;;;;;;;20.85;9.55;;;;;;;-142.57;91.54;115900.28;6186830;23;20005;-82
2023/07/19 02:02:45;;;;;;;11.63;8.80;;;;;;;-142.57;90.16;115900.28;6187031;23;20040;-83
2023/07/19 02:05:10;;;;;;;19.73;9.45;;;;;;;-142.57;90.28;115900.28;6185003;23;20441;-80
2023/07/19 02:07:36;;;;;;;17.38;9.05;;;;;;;-142.57;89.51;115900.28;6182832;23;20071;-80
2023/07/19 02:10:03;;;;;;;18.88;9.52;;;;;;;-142.57;90.50;115900.28;6184256;23;20017;-81
2023/07/19 02:12:29;;;;;;;19.08;9.75;;;;;;;-142.57;89.85;115900.28;6184147;23;20028;-84
2023/07/19 02:14:55;;;;;;;25.05;9.73;;;;;;;-142.57;89.82;115900.28;6183236;23;20433;-85
2023/07/19 02:17:21;;;;;;;20.55;9.35;;;;;;;-142.57;90.39;115900.28;6184499;23;20009;-82
2023/07/19 02:19:46;;;;;;;22.90;9.52;;;;;;;-142.57;92.20;115900.28;6197009;23;20104;-82
2023/07/19 02:22:12;;;;;;;19.73;9.57;;;;;;;-142.57;93.41;115900.28;6187449;23;20554;-85
2023/07/19 02:24:38;;;;;;;17.95;9.50;;;;;;;-142.57;95.12;115900.28;6183002;23;20037;-83
2023/07/19 02:27:03;;;;;;;16.98;9.75;;;;;;;-142.57;94.71;115900.28;6183368;23;20096;-83
2023/07/19 02:29:29;;;;;;;19.33;9.52;;;;;;;-142.57;94.48;115900.28;6182988;23;20013;-80
2023/07/19 02:31:54;;;;;;;21.77;10.27;;;;;;;-142.57;94.35;115900.28;6184941;23;20032;-82
2023/07/19 02:34:20;;;;;;;23.52;9.85;;;;;;;-142.57;93.75;115900.28;6183676;23;20332;-85
2023/07/19 02:36:48;;;;;;;20.90;9.90;;;;;;;-142.57;93.69;115900.28;6183497;23;20013;-84
2023/07/19 02:39:14;;;;;;;17.73;9.32;;;;;;;-142.57;93.04;115900.28;6185275;23;20013;-85
2023/07/19 02:41:39;;;;;;;21.02;9.80;;;;;;;-142.57;94.00;115900.28;6183154;23;20052;-80
2023/07/19 02:44:05;;;;;;;15.45;9.25;;;;;;;-142.57;94.59;115900.28;6184834;23;20045;-89
2023/07/19 02:46:30;;;;;;;16.10;9.75;;;;;;;-142.57;94.39;115900.28;6183046;23;20405;-84
2023/07/19 02:48:56;;;;;;;20.75;9.93;;;;;;;-142.57;95.79;115900.28;6184985;23;20056;-84
2023/07/19 02:51:23;;;;;;;21.50;10.20;;;;;;;-142.57;96.58;115900.28;6186227;23;20031;-84
2023/07/19 02:53:49;;;;;;;16.15;9.30;;;;;;;-142.57;95.96;115900.28;6185009;23;20036;-79
2023/07/19 02:56:15;;;;;;;18.98;9.65;;;;;;;-142.57;96.42;115900.28;6184541;23;20020;-80
2023/07/19 02:58:42;;;;;;;18.05;9.48;;;;;;;-142.57;96.07;115900.28;6182697;23;20471;-80
2023/07/19 03:01:07;;;;;;;17.30;9.60;;;;;;;-142.57;95.53;115900.28;6183006;23;20065;-82
2023/07/19 03:03:33;;;;;;;16.67;9.68;;;;;;;-142.57;95.79;115900.28;6184632;23;20009;-78
2023/07/19 03:06:00;;;;;;;19.48;10.05;;;;;;;-142.57;95.14;115900.28;6184779;23;20021;-78
2023/07/19 03:08:26;;;;;;;19.40;10.43;;;;;;;-142.57;95.61;115900.28;6138398;23;1121762;-81
2023/07/19 03:10:53;;;;;;;20.67;10.00;;;;;;;-142.57;95.83;115900.28;6186114;23;20310;-79
2023/07/19 03:13:19;;;;;;;16.83;10.00;;;;;;;-142.57;96.36;115900.28;6186277;23;20021;-84
2023/07/19 03:15:46;;;;;;;17.65;9.45;;;;;;;-142.57;95.57;115900.28;6187207;23;20148;-83
2023/07/19 03:18:12;;;;;;;19.92;9.60;;;;;;;-142.57;96.03;115900.28;6186015;23;20440;-82
2023/07/19 03:20:38;;;;;;;17.73;10.20;;;;;;;-142.57;96.28;115900.28;6186334;23;20013;-87
2023/07/19 03:23:04;;;;;;;17.65;10.45;;;;;;;-142.57;96.45;115900.28;6185017;23;20487;-81
2023/07/19 03:25:29;;;;;;;17.55;9.90;;;;;;;-142.57;96.90;115900.28;6184494;23;20017;-80
2023/07/19 03:27:56;;;;;;;16.00;10.07;;;;;;;-142.57;96.49;115900.28;6186456;23;20405;-84
2023/07/19 03:30:22;;;;;;;22.25;9.95;;;;;;;-142.57;97.17;115900.28;6186470;23;20092;-83
2023/07/19 03:32:47;;;;;;;22.58;10.20;;;;;;;-142.57;97.52;115900.28;6184382;23;20036;-84
2023/07/19 03:35:13;;;;;;;19.98;10.65;;;;;;;-142.57;98.71;115900.28;6184826;23;20005;-81
2023/07/19 03:37:44;;;;;;;18.98;10.32;;;;;;;-142.57;98.83;115900.28;6185145;23;20016;-85
2023/07/19 03:40:11;;;;;;;21.35;10.65;;;;;;;-142.57;98.83;115900.28;6184920;23;20099;-83
2023/07/19 03:42:36;;;;;;;20.83;10.45;;;;;;;-142.57;98.84;115900.28;6184497;23;20092;-84
2023/07/19 03:45:04;;;;;;;19.02;9.55;;;;;;;-142.57;99.92;115900.28;6185070;23;20017;-84
2023/07/19 03:47:29;;;;;;;26.80;9.98;;;;;;;-142.57;98.85;115900.28;6186239;23;20421;-81
2023/07/19 03:49:55;;;;;;;18.67;9.75;;;;;;;-142.57;99.15;115900.28;6184298;23;20014;-81
2023/07/19 03:52:20;;;;;;;22.42;10.23;;;;;;;-142.57;99.09;115900.28;6185987;23;20016;-82
2023/07/19 03:54:46;;;;;;;16.13;10.52;;;;;;;-142.57;99.51;115900.28;6184236;23;20009;-81
2023/07/19 03:57:12;;;;;;;18.02;10.50;;;;;;;-142.57;99.80;115900.28;6185783;23;20092;-84
2023/07/19 03:59:38;;;;;;;20.15;10.82;;;;;;;-142.57;100.00;115900.28;6184410;23;20009;-84
2023/07/19 04:02:03;;;;;;;19.77;10.00;;;;;;;-142.57;100.00;115900.28;6185547;23;20011;-82
2023/07/19 04:04:33;;;;;;;26.50;10.27;;;;;;;-142.57;100.00;115900.28;6208912;23;20337;-77
2023/07/19 04:06:58;;;;;;;23.25;10.60;;;;;;;-142.57;100.00;115900.28;6185969;23;20084;-83
2023/07/19 04:09:24;;;;;;;22.48;9.80;;;;;;;-142.57;100.00;115900.28;6186046;23;20061;-81
2023/07/19 04:11:49;;;;;;;24.30;10.25;;;;;;;-142.57;100.00;115900.28;6184103;23;20005;-83
2023/07/19 04:14:15;;;;;;;21.95;10.60;;;;;;;-142.57;100.00;115900.28;6183803;23;20432;-79
2023/07/19 04:16:41;;;;;;;24.63;10.45;;;;;;;-142.57;100.00;115900.28;6183816;23;20013;-78
2023/07/19 04:19:09;;;;;;;21.38;10.68;;;;;;;-142.57;100.00;115900.28;6183985;23;20008;-80
2023/07/19 04:21:34;;;;;;;23.00;11.25;;;;;;;-142.57;100.00;115900.28;6159156;23;20321;-79
2023/07/19 04:24:00;;;;;;;19.85;10.80;;;;;;;-142.57;100.00;115900.28;6183511;23;20012;-82
2023/07/19 04:26:26;;;;;;;16.35;10.90;;;;;;;-142.57;100.00;115900.28;6184020;23;20025;-81
2023/07/19 04:28:52;;;;;;;32.13;10.10;;;;;;;-142.57;100.00;115900.28;6184197;23;20400;-84
2023/07/19 04:31:17;;;;;;;22.25;10.82;;;;;;;-142.57;100.00;115900.28;6183472;23;20013;-79
2023/07/19 04:33:43;;;;;;;16.77;10.05;;;;;;;-142.57;100.00;115900.28;6183956;23;20020;-81
2023/07/19 04:36:16;;;;;;;30.00;11.25;;;;;;;-142.57;100.00;115900.28;6184659;23;20005;-81
2023/07/19 04:38:43;;;;;;;20.17;10.23;;;;;;;-142.57;100.00;115900.28;6184222;23;20099;-80
2023/07/19 04:41:09;;;;;;;23.35;10.30;;;;;;;-142.57;100.00;115900.28;6184955;23;20408;-79
2023/07/19 04:43:35;;;;;;;23.83;10.90;;;;;;;-142.57;100.00;115900.28;6189782;23;20088;-80
2023/07/19 04:46:04;;;;;;;18.63;11.38;;;;;;;-142.57;100.00;115900.28;6190343;23;20016;-85
2023/07/19 04:48:29;;;;;;;25.70;11.88;;;;;;;-142.57;100.00;115900.28;6186848;23;20013;-80
2023/07/19 04:50:57;;;;;;;19.92;10.63;;;;;;;-142.57;100.00;115900.28;6184397;23;20024;-86
2023/07/19 04:53:25;;;;;;;24.08;10.63;;;;;;;-142.57;99.42;115900.28;6160668;23;20021;-82
2023/07/19 04:55:53;;;;;;;26.85;12.07;;;;;;;-142.57;100.00;115900.28;6184178;23;20095;-85
2023/07/19 04:58:21;;;;;;;26.80;11.23;;;;;;;-142.57;100.00;115900.28;6185032;23;20038;-87
2023/07/19 05:00:46;;;;;;;25.08;12.25;;;;;;;-142.57;99.31;115900.28;6185462;23;20143;-88
2023/07/19 05:03:12;;;;;;;25.13;12.80;;;;;;;-142.57;99.17;115900.28;6185922;23;20005;-85
2023/07/19 05:05:38;;;;;;;25.25;11.57;;;;;;;-142.57;99.59;115900.28;6160008;23;20472;-86
2023/07/19 05:08:06;;;;;;;25.40;12.27;;;;;;;-142.57;98.67;115900.28;6194585;23;20017;-83
2023/07/19 05:10:37;;;;;;;19.23;11.35;;;;;;;-142.57;98.54;115900.28;6203826;23;20013;-86
2023/07/19 05:13:04;;;;;;;25.95;11.85;;;;;;;-142.57;97.86;115900.28;6190598;23;20019;-88
2023/07/19 05:15:30;;;;;;;27.42;11.88;;;;;;;-142.57;99.12;115900.28;6192298;23;20016;-84
2023/07/19 05:17:55;;;;;;;25.77;11.50;;;;;;;-142.57;97.22;115900.28;6188679;23;20013;-87
2023/07/19 05:20:23;;;;;;;23.88;11.82;;;;;;;-142.57;96.50;115900.28;6188046;23;20102;-88
2023/07/19 05:22:49;;;;;;;26.77;12.55;;;;;;;-142.57;95.87;115900.28;6184856;23;20098;-83
2023/07/19 05:25:15;;;;;;;28.92;11.98;;;;;;;-142.57;96.05;115900.28;6185761;23;20039;-82
2023/07/19 05:27:40;;;;;;;26.73;12.30;;;;;;;-142.57;95.91;115900.28;6185920;23;20009;-82
2023/07/19 05:30:07;;;;;;;22.90;11.82;;;;;;;-142.57;94.62;115900.28;6185237;23;20045;-82
2023/07/19 05:32:32;;;;;;;23.58;11.35;;;;;;;-142.57;93.05;115900.28;6185263;23;20497;-82
2023/07/19 05:34:59;;;;;;;31.10;12.18;;;;;;;-142.57;92.50;115900.28;6185285;23;20009;-85
2023/07/19 05:37:24;;;;;;;24.73;11.80;;;;;;;-142.57;91.83;115900.28;6208850;23;20071;-84
2023/07/19 05:39:50;;;;;;;22.02;11.50;;;;;;;-142.57;90.49;115900.28;6185156;23;20094;-79
2023/07/19 05:42:16;;;;;;;22.75;11.45;;;;;;;-142.57;90.08;115900.28;6185174;23;20005;-84
2023/07/19 05:44:41;;;;;;;24.20;11.65;;;;;;;-142.57;88.43;115900.28;6185385;23;20080;-81
2023/07/19 05:47:07;;;;;;;23.52;11.68;;;;;;;-142.57;88.20;115900.28;6185263;23;20083;-80
2023/07/19 05:49:33;;;;;;;38.25;11.40;;;;;;;-142.57;88.18;115900.28;6185324;23;20009;-81
2023/07/19 05:51:59;;;;;;;30.35;11.05;;;;;;;-142.57;87.94;115900.28;6185241;23;20024;-80
2023/07/19 05:54:24;;;;;;;21.23;11.27;;;;;;;-142.57;87.37;115900.28;6186739;23;20005;-82
2023/07/19 05:56:50;;;;;;;24.85;11.50;;;;;;;-142.57;85.35;115900.28;6187185;23;20124;-80
2023/07/19 05:59:16;;;;;;;27.30;11.38;;;;;;;-142.57;85.05;115900.28;6187561;23;20421;-81
2023/07/19 06:01:41;;;;;;;22.90;11.52;;;;;;;-142.57;84.32;115900.28;6187106;23;20290;-83
2023/07/19 06:04:09;;;;;;;21.52;11.50;;;;;;;-142.57;84.12;115900.28;6187242;23;20009;-83
2023/07/19 06:06:34;;;;;;;23.45;12.20;;;;;;;-142.57;83.80;115900.28;6185556;23;20013;-83
2023/07/19 06:09:05;;;;;;;26.17;12.32;;;;;;;-142.57;83.59;115900.28;6187815;23;20032;-82
2023/07/19 06:11:32;;;;;;;26.48;11.98;;;;;;;-142.57;84.24;115900.28;6187590;23;20012;-83
2023/07/19 06:13:58;;;;;;;24.45;12.73;;;;;;;-142.57;82.78;115900.28;6186383;23;20013;-83
2023/07/19 06:16:23;;;;;;;25.65;12.50;;;;;;;-142.57;82.00;115900.28;6187348;23;20462;-81
2023/07/19 06:18:49;;;;;;;32.63;12.82;;;;;;;-142.57;82.25;115900.28;6188269;23;20011;-80
2023/07/19 06:21:14;;;;;;;22.20;12.75;;;;;;;-142.57;82.56;115900.28;6186833;23;20080;-82
2023/07/19 06:23:41;;;;;;;24.13;12.13;;;;;;;-142.57;81.55;115900.28;6185596;23;20009;-81
2023/07/19 06:26:06;;;;;;;21.52;12.25;;;;;;;-142.57;82.23;115900.28;6187278;23;20005;-82
2023/07/19 06:28:32;;;;;;;29.80;11.55;;;;;;;-142.57;81.54;115900.28;6187588;23;20017;-82
2023/07/19 06:30:58;;;;;;;20.65;12.57;;;;;;;-142.57;81.41;115900.28;6187104;23;20341;-82
2023/07/19 06:33:24;;;;;;;25.85;11.82;;;;;;;-142.57;81.18;115900.28;6188060;23;20001;-85
2023/07/19 06:35:51;;;;;;;35.92;14.63;;;;;;;-142.57;79.35;115900.28;6189849;23;20013;-81
2023/07/19 06:38:16;;;;;;;28.65;13.05;;;;;;;-142.57;78.92;115900.28;6186607;23;20056;-80
2023/07/19 06:40:42;;;;;;;25.77;11.90;;;;;;;-142.57;78.08;115900.28;6189976;23;20009;-83
2023/07/19 06:43:09;;;;;;;23.30;10.98;;;;;;;-142.57;75.88;115900.28;6188087;23;20011;-84
2023/07/19 06:45:35;;;;;;;27.20;11.60;;;;;;;-142.57;74.19;115900.28;6188004;23;20016;-83
2023/07/19 06:48:00;;;;;;;24.02;10.85;;;;;;;-142.57;73.26;115900.28;6186942;23;20009;-84
2023/07/19 06:50:28;;;;;;;29.23;11.20;;;;;;;-142.57;72.99;115900.28;6184269;23;20016;-87
2023/07/19 06:52:54;;;;;;;22.27;10.82;;;;;;;-142.57;72.21;115900.28;6186747;23;20498;-83
2023/07/19 06:55:19;;;;;;;29.52;12.88;;;;;;;-142.57;73.78;115900.28;6186291;23;20013;-83
2023/07/19 06:57:45;;;;;;;42.22;13.50;;;;;;;-142.57;73.89;115900.28;6187547;23;20005;-82
2023/07/19 07:00:11;;;;;;;24.48;11.07;;;;;;;-142.57;71.62;115900.28;6187880;23;20088;-85
2023/07/19 07:02:37;;;;;;;20.70;9.77;;;;;;;-142.57;69.88;115900.28;6186363;23;20037;-84
2023/07/19 07:05:03;;;;;;;26.98;9.65;;;;;;;-142.57;65.98;115900.28;6187427;23;20024;-82
2023/07/19 07:07:28;;;;;;;20.17;9.57;;;;;;;-142.57;63.45;115900.28;6185196;23;20021;-84
2023/07/19 07:09:54;;;;;;;17.05;9.27;;;;;;;-142.57;63.45;115900.28;6184030;23;20048;-83
2023/07/19 07:12:19;;;;;;;21.15;9.00;;;;;;;-142.57;61.30;115900.28;6190470;23;20036;-83
2023/07/19 07:14:45;;;;;;;17.90;8.38;;;;;;;-142.57;59.93;115900.28;6187611;23;20012;-81
2023/07/19 07:17:11;;;;;;;24.83;9.30;;;;;;;-142.57;58.76;115900.28;6187753;23;20009;-85
2023/07/19 07:19:36;;;;;;;17.92;8.65;;;;;;;-142.57;55.56;115900.28;6188418;23;20402;-85
2023/07/19 07:22:02;;;;;;;19.80;8.07;;;;;;;-142.57;54.78;115900.28;6163951;23;20005;-86
2023/07/19 07:24:27;;;;;;;24.10;8.40;;;;;;;-142.57;57.40;115900.28;6187617;23;20085;-84
2023/07/19 07:26:53;;;;;;;23.40;8.60;;;;;;;-142.57;58.26;115900.28;6188946;23;20080;-85
2023/07/19 07:29:18;;;;;;;22.27;7.68;;;;;;;-142.57;60.63;115900.28;6188856;23;20108;-87
2023/07/19 07:31:44;;;;;;;17.23;7.10;;;;;;;-142.57;61.69;115900.28;6186441;23;20009;-86
2023/07/19 07:34:09;;;;;;;16.27;7.07;;;;;;;-142.57;61.45;115900.28;6189165;23;20013;-89
2023/07/19 07:36:35;;;;;;;22.42;7.35;;;;;;;-142.57;60.61;115900.28;6190778;23;20364;-87
2023/07/19 07:39:01;;;;;;;24.70;8.63;;;;;;;-142.57;62.72;115900.28;6190471;23;20012;-85
2023/07/19 07:41:27;;;;;;;16.02;8.05;;;;;;;-142.57;64.52;115900.28;6198232;23;20012;-86
2023/07/19 07:43:53;;;;;;;18.30;8.55;;;;;;;-142.57;64.29;115900.28;6189049;23;20490;-85
2023/07/19 07:46:19;;;;;;;17.63;7.93;;;;;;;-142.57;64.94;115900.28;6164273;23;20013;-83
2023/07/19 07:48:44;;;;;;;14.05;7.28;;;;;;;-142.57;63.19;115900.28;6207097;23;20009;-85
2023/07/19 07:51:11;;;;;;;21.67;8.20;;;;;;;-142.57;60.92;115900.28;6204199;23;20017;-83
2023/07/19 07:53:37;;;;;;;17.02;7.50;;;;;;;-142.57;59.83;115900.28;6206175;23;20028;-82
2023/07/19 07:56:02;;;;;;;15.52;8.05;;;;;;;-142.57;60.67;115900.28;6203293;23;20013;-79
2023/07/19 07:58:28;;;;;;;21.00;7.85;;;;;;;-142.57;60.51;115900.28;6200139;23;20318;-82
2023/07/19 08:00:54;;;;;;;19.63;8.02;;;;;;;-142.57;61.29;115900.28;6202175;23;19993;-81
2023/07/19 08:03:20;;;;;;;20.75;8.27;;;;;;;-142.57;62.70;115900.28;6196012;23;20019;-82
2023/07/19 08:05:45;;;;;;;22.67;8.07;;;;;;;-142.57;64.43;115900.28;6187489;23;20009;-81
2023/07/19 08:08:11;;;;;;;20.58;8.30;;;;;;;-142.57;65.56;115900.28;6188897;23;20059;-80
2023/07/19 08:10:38;;;;;;;21.02;9.18;;;;;;;-142.57;66.69;115900.28;6190888;23;20037;-83
2023/07/19 08:13:05;;;;;;;23.60;8.48;;;;;;;-142.57;65.54;115900.28;6193416;23;20005;-83
2023/07/19 08:15:31;;;;;;;23.40;8.93;;;;;;;-142.57;64.92;115900.28;6193768;23;20093;-85
2023/07/19 08:17:57;;;;;;;22.65;8.32;;;;;;;-142.57;63.88;115900.28;6191698;23;20076;-81
2023/07/19 08:20:26;;;;;;;20.50;8.52;;;;;;;-142.57;64.52;115900.28;6190316;23;20013;-81
2023/07/19 08:23:00;;;;;;;17.48;8.27;;;;;;;-142.57;64.43;115900.28;6192885;23;20020;-81
2023/07/19 08:25:29;;;;;;;16.80;7.82;;;;;;;-142.57;64.88;115900.28;6193521;23;20009;-80
2023/07/19 08:27:56;;;;;;;12.45;8.05;;;;;;;-142.57;65.16;115900.28;6192894;23;20016;-80
2023/07/19 08:30:24;;;;;;;19.73;8.52;;;;;;;-142.57;64.83;115900.28;6194109;23;20444;-82
2023/07/19 08:32:52;;;;;;;22.98;9.93;;;;;;;-142.57;65.39;115900.28;6187447;23;20009;-85
2023/07/19 08:35:18;;;;;;;20.58;8.80;;;;;;;-142.57;66.43;115900.28;6192060;23;20340;-81
2023/07/19 08:37:45;;;;;;;20.52;9.18;;;;;;;-142.57;65.89;115900.28;6194214;23;20016;-80
2023/07/19 08:40:12;;;;;;;19.90;9.93;;;;;;;-142.57;66.31;115900.28;6200964;23;20333;-80
2023/07/19 08:42:40;;;;;;;22.45;8.45;;;;;;;-142.57;67.31;115900.28;6196967;23;20114;-79
2023/07/19 08:45:10;;;;;;;15.57;9.10;;;;;;;-142.57;66.36;115900.28;6191954;23;20005;-78
2023/07/19 08:47:39;;;;;;;18.20;8.63;;;;;;;-142.57;66.44;115900.28;6188633;23;20012;-80
2023/07/19 08:50:15;;;;;;;16.25;7.50;;;;;;;-142.57;65.19;115900.28;6189689;23;20016;-81
2023/07/19 08:52:41;;;;;;;25.13;8.00;;;;;;;-142.57;64.78;115900.28;6193708;23;20105;-82
2023/07/19 08:55:07;;;;;;;18.02;7.63;;;;;;;-142.57;64.24;115900.28;6189174;23;20008;-80
2023/07/19 08:57:38;;;;;;;21.08;7.90;;;;;;;-142.57;63.35;115900.28;6188577;23;20017;-81
2023/07/19 09:00:04;;;;;;;21.90;8.53;;;;;;;-142.57;64.03;115900.28;6187694;23;20013;-79
2023/07/19 09:02:30;;;;;;;25.77;8.18;;;;;;;-142.57;62.58;115900.28;6187997;23;20009;-78
2023/07/19 09:05:14;;;;;;;12.20;7.47;;;;;;;-142.57;59.93;115900.28;6192519;23;20140;-85
2023/07/19 09:07:47;;;;;;;16.40;7.95;;;;;;;-142.57;58.17;115900.28;6194828;23;20340;-82
2023/07/19 09:10:13;;;;;;;25.00;8.00;;;;;;;-142.57;56.52;115900.28;6191479;23;20017;-82
2023/07/19 09:12:43;;;;;;;19.65;7.93;;;;;;;-142.57;55.87;115900.28;6193429;23;20030;-82
2023/07/19 09:15:10;;;;;;;18.42;7.80;;;;;;;-142.57;55.28;115900.28;6191929;23;20009;-84
2023/07/19 09:17:44;;;;;;;17.52;7.57;;;;;;;-142.57;53.67;115900.28;6188786;23;20009;-80
2023/07/19 09:20:10;;;;;;;19.95;8.48;;;;;;;-142.57;51.58;115900.28;6188233;23;20091;-82
2023/07/19 09:22:37;;;;;;;17.60;8.60;;;;;;;-142.57;52.93;115900.28;6188094;23;20059;-84
2023/07/19 09:25:06;;;;;;;22.30;8.60;;;;;;;-142.57;52.55;115900.28;6187016;23;20028;-81
2023/07/19 09:27:32;;;;;;;22.55;8.40;;;;;;;-142.57;53.63;115900.28;6187616;23;20032;-81
2023/07/19 09:29:58;;;;;;;18.60;8.00;;;;;;;-142.57;54.40;115900.28;6189897;23;20020;-81
2023/07/19 09:32:24;;;;;;;18.73;7.53;;;;;;;-142.57;52.61;115900.28;6190558;23;20020;-82
2023/07/19 09:34:54;;;;;;;24.95;8.38;;;;;;;-142.57;51.91;115900.28;6191835;23;20005;-84
2023/07/19 09:37:22;;;;;;;20.27;8.13;;;;;;;-142.57;52.21;115900.28;6191888;23;20016;-82
2023/07/19 09:39:47;;;;;;;21.40;8.13;;;;;;;-142.57;51.23;115900.28;6188104;23;20006;-84
2023/07/19 09:42:13;;;;;;;17.92;9.38;;;;;;;-142.57;51.64;115900.28;6190459;23;20013;-86
2023/07/19 09:44:40;;;;;;;17.58;8.95;;;;;;;-142.57;53.37;115900.28;6188468;23;20032;-82
2023/07/19 09:47:11;;;;;;;25.13;8.55;;;;;;;-142.57;52.73;115900.28;6163426;23;20013;-83
2023/07/19 09:49:36;;;;;;;19.10;8.10;;;;;;;-142.57;50.84;115900.28;6191581;23;20040;-82
2023/07/19 09:52:03;;;;;;;23.15;8.23;;;;;;;-142.57;49.69;115900.28;6191384;23;20013;-83
2023/07/19 09:54:31;;;;;;;22.20;7.93;;;;;;;-142.57;49.27;115900.28;6191263;23;20013;-82
2023/07/19 09:56:59;;;;;;;22.85;9.10;;;;;;;-142.57;50.05;115900.28;6192237;23;20009;-83
2023/07/19 09:59:29;;;;;;;12.95;7.65;;;;;;;-142.57;52.26;115900.28;6191811;23;20035;-88
2023/07/19 10:01:56;;;;;;;17.95;7.75;;;;;;;-142.57;51.90;115900.28;6194121;23;20056;-86
2023/07/19 10:04:27;;;;;;;23.55;7.82;;;;;;;-142.57;49.42;115900.28;6194910;23;20071;-83
2023/07/19 10:07:08;;;;;;;25.27;7.80;;;;;;;-142.57;49.94;115900.28;6192009;23;20016;-85
2023/07/19 10:09:40;;;;;;;19.20;8.20;;;;;;;-142.57;50.41;115900.28;6191390;23;20017;-83
2023/07/19 10:12:18;;;;;;;21.50;7.28;;;;;;;-142.57;49.23;115900.28;6196508;23;20448;-92
2023/07/19 10:14:56;;;;;;;18.20;7.22;;;;;;;-142.57;49.86;115900.28;6197234;23;20336;-84
2023/07/19 10:17:22;;;;;;;19.05;7.45;;;;;;;-142.57;49.18;115900.28;6194572;23;20013;-83
2023/07/19 10:20:03;;;;;;;19.70;7.57;;;;;;;-142.57;50.01;115900.28;6195467;23;20032;-86
2023/07/19 10:22:47;;;;;;;19.48;7.45;;;;;;;-142.57;47.49;115900.28;6193573;23;20129;-87
2023/07/19 10:25:31;;;;;;;20.70;6.97;;;;;;;-142.57;47.35;115900.28;6194632;23;20092;-86
2023/07/19 10:28:10;;;;;;;15.48;7.45;;;;;;;-142.57;48.63;115900.28;6194307;23;20077;-83
2023/07/19 10:30:42;;;;;;;18.48;7.28;;;;;;;-142.57;48.25;115900.28;6197046;23;20016;-84
2023/07/19 10:33:20;;;;;;;27.73;8.10;;;;;;;-142.57;48.22;115900.28;6192451;23;20020;-85
2023/07/19 10:35:49;;;;;;;30.00;8.40;;;;;;;-142.57;49.50;115900.28;6193656;23;20011;-82
2023/07/19 10:38:30;;;;;;;19.73;8.02;;;;;;;-142.57;47.41;115900.28;6190424;23;20009;-82
2023/07/19 10:41:04;;;;;;;16.48;7.00;;;;;;;-142.57;45.19;115900.28;6188496;23;20005;-82
2023/07/19 10:43:31;;;;;;;19.50;7.13;;;;;;;-142.57;44.37;115900.28;6187807;23;20428;-83
2023/07/19 10:46:03;;;;;;;20.10;7.40;;;;;;;-142.57;44.44;115900.28;6187246;23;20382;-83
2023/07/19 10:48:33;;;;;;;18.25;7.15;;;;;;;-142.57;45.22;115900.28;6189065;23;20009;-82
2023/07/19 10:51:00;;;;;;;14.00;7.45;;;;;;;-142.57;44.33;115900.28;6191961;23;20092;-85
2023/07/19 10:53:30;;;;;;;21.92;7.95;;;;;;;-142.57;45.65;115900.28;6201330;23;20009;-84
2023/07/19 10:55:58;;;;;;;18.10;7.15;;;;;;;-142.57;44.46;115900.28;6188879;23;20032;-85